sensor_id;sensor_type;location;lat;lon;timestamp;pressure;altitude;pressure_sealevel;temperature;humidity
54122;BME280;40029;58.708;50.190;2023-03-20T00:00:29;100687.44;;;0.20;32.52
54122;BME280;40029;58.708;50.190;2023-03-20T00:03:01;100672.66;;;0.06;32.29
54122;BME280;40029;58.708;50.190;2023-03-20T00:05:33;100709.81;;;0.29;32.40
54122;BME280;40029;58.708;50.190;2023-03-20T00:08:04;100741.81;;;0.48;32.80
54122;BME280;40029;58.708;50.190;2023-03-20T00:10:38;100673.59;;;0.09;32.87
54122;BME280;40029;58.708;50.190;2023-03-20T00:13:12;100732.59;;;0.59;32.94
54122;BME280;40029;58.708;50.190;2023-03-20T00:15:44;100678.03;;;0.18;32.90
54122;BME280;40029;58.708;50.190;2023-03-20T00:18:17;100684.09;;;0.24;33.09
54122;BME280;40029;58.708;50.190;2023-03-20T00:20:50;100722.31;;;0.59;33.34
54122;BME280;40029;58.708;50.190;2023-03-20T00:23:21;100733.41;;;0.57;32.64
54122;BME280;40029;58.708;50.190;2023-03-20T00:25:52;100679.09;;;0.31;32.85
54122;BME280;40029;58.708;50.190;2023-03-20T00:34:00;100722.50;;;0.68;33.81
54122;BME280;40029;58.708;50.190;2023-03-20T00:36:32;100663.75;;;0.34;33.54
54122;BME280;40029;58.708;50.190;2023-03-20T00:39:04;100683.56;;;0.41;33.59
54122;BME280;40029;58.708;50.190;2023-03-20T00:46:53;100698.94;;;0.42;34.15
54122;BME280;40029;58.708;50.190;2023-03-20T00:49:32;100657.44;;;0.13;33.46
54122;BME280;40029;58.708;50.190;2023-03-20T00:52:04;100706.47;;;0.33;33.56
54122;BME280;40029;58.708;50.190;2023-03-20T00:54:35;100707.22;;;0.26;33.88
54122;BME280;40029;58.708;50.190;2023-03-20T00:57:07;100714.84;;;0.24;33.66
54122;BME280;40029;58.708;50.190;2023-03-20T00:59:45;100714.06;;;0.26;33.36
54122;BME280;40029;58.708;50.190;2023-03-20T01:02:22;100703.56;;;0.13;33.22
54122;BME280;40029;58.708;50.190;2023-03-20T01:04:57;100584.53;;;-0.48;33.60
54122;BME280;40029;58.708;50.190;2023-03-20T01:07:30;100695.81;;;0.10;33.81
54122;BME280;40029;58.708;50.190;2023-03-20T01:10:01;100637.94;;;-0.24;33.72
54122;BME280;40029;58.708;50.190;2023-03-20T01:12:33;100658.63;;;-0.13;33.84
54122;BME280;40029;58.708;50.190;2023-03-20T01:15:15;100709.53;;;0.14;34.17
54122;BME280;40029;58.708;50.190;2023-03-20T01:17:47;100636.16;;;-0.28;33.67
54122;BME280;40029;58.708;50.190;2023-03-20T01:20:24;100685.38;;;0.01;33.86
54122;BME280;40029;58.708;50.190;2023-03-20T01:22:56;100709.47;;;0.09;33.92
54122;BME280;40029;58.708;50.190;2023-03-20T01:25:27;100644.84;;;-0.18;34.27
54122;BME280;40029;58.708;50.190;2023-03-20T01:28:00;100629.31;;;-0.28;34.64
54122;BME280;40029;58.708;50.190;2023-03-20T01:30:31;100642.28;;;-0.20;34.69
54122;BME280;40029;58.708;50.190;2023-03-20T01:33:18;100672.56;;;0.01;34.95
54122;BME280;40029;58.708;50.190;2023-03-20T01:35:54;100698.34;;;0.09;34.43
54122;BME280;40029;58.708;50.190;2023-03-20T01:38:28;100682.06;;;0.07;35.01
54122;BME280;40029;58.708;50.190;2023-03-20T01:41:15;100688.22;;;0.16;34.75
54122;BME280;40029;58.708;50.190;2023-03-20T01:43:47;100624.22;;;-0.26;34.86
54122;BME280;40029;58.708;50.190;2023-03-20T01:46:26;100640.66;;;-0.15;35.04
54122;BME280;40029;58.708;50.190;2023-03-20T01:51:39;100666.44;;;-0.07;35.32
54122;BME280;40029;58.708;50.190;2023-03-20T01:54:19;100685.28;;;-0.04;35.09
54122;BME280;40029;58.708;50.190;2023-03-20T01:57:17;100607.66;;;-0.43;35.69
54122;BME280;40029;58.708;50.190;2023-03-20T01:59:59;100631.88;;;-0.28;35.24
54122;BME280;40029;58.708;50.190;2023-03-20T02:02:34;100692.34;;;0.08;35.43
54122;BME280;40029;58.708;50.190;2023-03-20T02:05:09;100678.72;;;0.09;34.99
54122;BME280;40029;58.708;50.190;2023-03-20T02:07:46;100607.97;;;-0.30;35.03
54122;BME280;40029;58.708;50.190;2023-03-20T02:10:20;100599.25;;;-0.38;34.89
54122;BME280;40029;58.708;50.190;2023-03-20T02:12:59;100692.38;;;0.10;35.49
54122;BME280;40029;58.708;50.190;2023-03-20T02:16:11;100680.59;;;0.18;35.52
54122;BME280;40029;58.708;50.190;2023-03-20T02:19:04;100634.66;;;-0.17;35.50
54122;BME280;40029;58.708;50.190;2023-03-20T02:37:37;100673.19;;;-0.11;37.06
54122;BME280;40029;58.708;50.190;2023-03-20T02:40:38;100611.81;;;-0.50;36.84
54122;BME280;40029;58.708;50.190;2023-03-20T02:45:56;100674.72;;;-0.19;36.80
54122;BME280;40029;58.708;50.190;2023-03-20T02:48:52;100681.41;;;-0.26;37.46
54122;BME280;40029;58.708;50.190;2023-03-20T02:54:22;100642.72;;;-0.41;37.41
54122;BME280;40029;58.708;50.190;2023-03-20T02:57:25;100669.50;;;-0.25;36.93
54122;BME280;40029;58.708;50.190;2023-03-20T03:00:32;100684.19;;;-0.16;37.33
54122;BME280;40029;58.708;50.190;2023-03-20T03:05:51;100678.75;;;-0.32;37.70
54122;BME280;40029;58.708;50.190;2023-03-20T03:08:27;100670.72;;;-0.48;37.68
54122;BME280;40029;58.708;50.190;2023-03-20T03:11:04;100556.94;;;-1.04;38.14
54122;BME280;40029;58.708;50.190;2023-03-20T03:13:40;100659.88;;;-0.37;37.82
54122;BME280;40029;58.708;50.190;2023-03-20T03:16:17;100647.00;;;-0.40;37.90
54122;BME280;40029;58.708;50.190;2023-03-20T03:18:54;100609.78;;;-0.65;38.17
54122;BME280;40029;58.708;50.190;2023-03-20T03:21:31;100664.16;;;-0.36;37.82
54122;BME280;40029;58.708;50.190;2023-03-20T03:24:04;100654.84;;;-0.32;38.01
54122;BME280;40029;58.708;50.190;2023-03-20T03:26:38;100667.06;;;-0.19;38.38
54122;BME280;40029;58.708;50.190;2023-03-20T03:29:14;100653.03;;;-0.38;38.83
54122;BME280;40029;58.708;50.190;2023-03-20T03:31:47;100611.50;;;-0.65;38.35
54122;BME280;40029;58.708;50.190;2023-03-20T03:34:21;100650.38;;;-0.42;39.05
54122;BME280;40029;58.708;50.190;2023-03-20T03:37:04;100675.66;;;-0.15;38.96
54122;BME280;40029;58.708;50.190;2023-03-20T03:39:47;100607.75;;;-0.39;38.61
54122;BME280;40029;58.708;50.190;2023-03-20T03:47:38;100631.25;;;-0.16;38.15
54122;BME280;40029;58.708;50.190;2023-03-20T03:50:25;100671.03;;;0.09;38.80
54122;BME280;40029;58.708;50.190;2023-03-20T03:53:09;100668.41;;;0.06;38.54
54122;BME280;40029;58.708;50.190;2023-03-20T03:55:44;100656.28;;;-0.01;39.00
54122;BME280;40029;58.708;50.190;2023-03-20T04:01:02;100665.50;;;0.35;38.33
54122;BME280;40029;58.708;50.190;2023-03-20T04:03:38;100562.91;;;-0.18;38.54
54122;BME280;40029;58.708;50.190;2023-03-20T04:06:11;100606.97;;;0.11;38.38
54122;BME280;40029;58.708;50.190;2023-03-20T04:08:43;100662.25;;;0.45;38.61
54122;BME280;40029;58.708;50.190;2023-03-20T04:11:16;100633.78;;;0.30;38.40
54122;BME280;40029;58.708;50.190;2023-03-20T04:13:50;100621.72;;;0.24;39.06
54122;BME280;40029;58.708;50.190;2023-03-20T04:16:23;100599.38;;;0.17;38.16
54122;BME280;40029;58.708;50.190;2023-03-20T04:18:54;100667.53;;;0.53;38.11
54122;BME280;40029;58.708;50.190;2023-03-20T04:21:26;100670.16;;;0.57;38.48
54122;BME280;40029;58.708;50.190;2023-03-20T04:23:57;100659.91;;;0.57;38.12
54122;BME280;40029;58.708;50.190;2023-03-20T04:26:28;100648.88;;;0.61;37.71
54122;BME280;40029;58.708;50.190;2023-03-20T04:29:00;100668.88;;;0.84;37.96
54122;BME280;40029;58.708;50.190;2023-03-20T04:32:05;100659.41;;;0.80;37.64
54122;BME280;40029;58.708;50.190;2023-03-20T04:34:56;100661.22;;;0.85;37.76
54122;BME280;40029;58.708;50.190;2023-03-20T04:37:46;100632.03;;;0.79;37.54
54122;BME280;40029;58.708;50.190;2023-03-20T04:40:18;100649.34;;;0.92;37.31
54122;BME280;40029;58.708;50.190;2023-03-20T04:42:51;100647.50;;;0.82;37.61
54122;BME280;40029;58.708;50.190;2023-03-20T04:45:22;100581.41;;;0.65;37.47
54122;BME280;40029;58.708;50.190;2023-03-20T04:47:53;100596.19;;;0.85;36.89
54122;BME280;40029;58.708;50.190;2023-03-20T04:50:26;100660.06;;;1.22;37.25
54122;BME280;40029;58.708;50.190;2023-03-20T04:52:59;100663.22;;;1.06;37.46
54122;BME280;40029;58.708;50.190;2023-03-20T04:55:30;100629.00;;;1.06;37.44
54122;BME280;40029;58.708;50.190;2023-03-20T04:58:02;100552.47;;;0.75;36.75
54122;BME280;40029;58.708;50.190;2023-03-20T05:00:33;100631.91;;;1.29;37.46
54122;BME280;40029;58.708;50.190;2023-03-20T05:03:04;100650.88;;;1.40;37.59
54122;BME280;40029;58.708;50.190;2023-03-20T05:05:37;100646.63;;;1.40;37.23
54122;BME280;40029;58.708;50.190;2023-03-20T05:08:08;100640.81;;;1.54;37.40
54122;BME280;40029;58.708;50.190;2023-03-20T05:10:41;100621.75;;;1.38;37.34
54122;BME280;40029;58.708;50.190;2023-03-20T05:13:32;100641.72;;;1.59;37.50
54122;BME280;40029;58.708;50.190;2023-03-20T05:16:24;100581.28;;;1.18;36.95
54122;BME280;40029;58.708;50.190;2023-03-20T05:19:21;100577.97;;;1.25;36.71
54122;BME280;40029;58.708;50.190;2023-03-20T05:22:10;100624.84;;;1.82;36.38
54122;BME280;40029;58.708;50.190;2023-03-20T05:25:04;100593.94;;;1.73;36.64
54122;BME280;40029;58.708;50.190;2023-03-20T05:27:48;100630.22;;;2.04;36.75
54122;BME280;40029;58.708;50.190;2023-03-20T05:30:52;100575.94;;;1.71;36.52
54122;BME280;40029;58.708;50.190;2023-03-20T05:34:01;100624.31;;;2.09;36.20
54122;BME280;40029;58.708;50.190;2023-03-20T05:37:01;100624.56;;;2.34;36.07
54122;BME280;40029;58.708;50.190;2023-03-20T05:39:45;100627.28;;;2.54;35.91
54122;BME280;40029;58.708;50.190;2023-03-20T05:42:43;100567.84;;;2.18;35.49
54122;BME280;40029;58.708;50.190;2023-03-20T05:45:24;100583.50;;;2.47;35.48
54122;BME280;40029;58.708;50.190;2023-03-20T05:48:17;100572.47;;;2.62;35.42
54122;BME280;40029;58.708;50.190;2023-03-20T05:51:09;100628.56;;;3.12;34.94
54122;BME280;40029;58.708;50.190;2023-03-20T05:54:01;100618.28;;;3.11;35.27
54122;BME280;40029;58.708;50.190;2023-03-20T05:56:50;100626.97;;;3.39;35.00
54122;BME280;40029;58.708;50.190;2023-03-20T05:59:48;100616.78;;;3.60;34.78
54122;BME280;40029;58.708;50.190;2023-03-20T06:02:37;100578.06;;;3.40;34.03
54122;BME280;40029;58.708;50.190;2023-03-20T06:05:23;100626.31;;;3.78;34.28
54122;BME280;40029;58.708;50.190;2023-03-20T06:07:56;100618.59;;;3.89;34.22
54122;BME280;40029;58.708;50.190;2023-03-20T06:10:27;100616.91;;;3.97;33.58
54122;BME280;40029;58.708;50.190;2023-03-20T06:13:00;100616.88;;;3.85;34.13
54122;BME280;40029;58.708;50.190;2023-03-20T06:15:33;100567.84;;;3.62;33.76
54122;BME280;40029;58.708;50.190;2023-03-20T06:18:14;100621.19;;;3.95;33.66
54122;BME280;40029;58.708;50.190;2023-03-20T06:20:45;100582.50;;;3.93;33.52
54122;BME280;40029;58.708;50.190;2023-03-20T06:23:22;100548.13;;;3.74;33.40
54122;BME280;40029;58.708;50.190;2023-03-20T06:25:53;100611.81;;;4.31;33.09
54122;BME280;40029;58.708;50.190;2023-03-20T06:28:25;100612.69;;;4.51;32.73
54122;BME280;40029;58.708;50.190;2023-03-20T06:31:04;100543.00;;;4.23;32.19
54122;BME280;40029;58.708;50.190;2023-03-20T06:33:35;100562.81;;;4.38;32.42
54122;BME280;40029;58.708;50.190;2023-03-20T06:36:08;100599.75;;;4.74;32.49
54122;BME280;40029;58.708;50.190;2023-03-20T06:38:39;100588.59;;;4.72;32.45
54122;BME280;40029;58.708;50.190;2023-03-20T06:41:16;100597.19;;;4.53;32.10
54122;BME280;40029;58.708;50.190;2023-03-20T06:43:47;100548.19;;;4.25;31.98
54122;BME280;40029;58.708;50.190;2023-03-20T06:46:19;100538.72;;;4.27;31.73
54122;BME280;40029;58.708;50.190;2023-03-20T06:48:52;100550.75;;;4.43;32.29
54122;BME280;40029;58.708;50.190;2023-03-20T06:51:23;100601.47;;;4.89;31.74
54122;BME280;40029;58.708;50.190;2023-03-20T06:53:56;100597.16;;;4.94;31.86
54122;BME280;40029;58.708;50.190;2023-03-20T06:56:31;100540.41;;;4.72;31.48
54122;BME280;40029;58.708;50.190;2023-03-20T06:59:02;100557.59;;;4.89;31.68
54122;BME280;40029;58.708;50.190;2023-03-20T07:01:33;100584.19;;;5.23;32.02
54122;BME280;40029;58.708;50.190;2023-03-20T07:04:04;100595.31;;;5.37;30.89
54122;BME280;40029;58.708;50.190;2023-03-20T07:06:42;100568.75;;;4.94;31.26
54122;BME280;40029;58.708;50.190;2023-03-20T07:09:14;100600.56;;;5.04;30.97
54122;BME280;40029;58.708;50.190;2023-03-20T07:11:47;100563.56;;;5.03;30.96
54122;BME280;40029;58.708;50.190;2023-03-20T07:14:19;100531.69;;;5.04;30.71
54122;BME280;40029;58.708;50.190;2023-03-20T07:16:55;100587.53;;;5.48;29.70
54122;BME280;40029;58.708;50.190;2023-03-20T07:19:26;100513.56;;;5.24;29.54
54122;BME280;40029;58.708;50.190;2023-03-20T07:22:02;100572.72;;;5.77;30.40
54122;BME280;40029;58.708;50.190;2023-03-20T07:24:41;100514.13;;;5.75;30.01
54122;BME280;40029;58.708;50.190;2023-03-20T07:27:15;100563.78;;;6.34;29.87
54122;BME280;40029;58.708;50.190;2023-03-20T07:29:46;100551.75;;;6.23;29.71
54122;BME280;40029;58.708;50.190;2023-03-20T07:32:20;100574.88;;;6.48;28.23
54122;BME280;40029;58.708;50.190;2023-03-20T07:34:54;100508.72;;;6.16;29.03
54122;BME280;40029;58.708;50.190;2023-03-20T07:37:26;100558.38;;;6.60;28.74
54122;BME280;40029;58.708;50.190;2023-03-20T07:40:06;100549.66;;;6.68;28.25
54122;BME280;40029;58.708;50.190;2023-03-20T07:42:56;100553.03;;;6.76;27.65
54122;BME280;40029;58.708;50.190;2023-03-20T07:45:47;100556.53;;;6.71;27.40
54122;BME280;40029;58.708;50.190;2023-03-20T07:48:18;100548.88;;;6.57;27.56
54122;BME280;40029;58.708;50.190;2023-03-20T07:50:50;100546.94;;;6.81;27.72
54122;BME280;40029;58.708;50.190;2023-03-20T07:53:21;100505.50;;;6.81;27.44
54122;BME280;40029;58.708;50.190;2023-03-20T07:55:53;100526.91;;;6.96;26.92
54122;BME280;40029;58.708;50.190;2023-03-20T07:58:24;100553.44;;;7.20;26.89
54122;BME280;40029;58.708;50.190;2023-03-20T08:00:56;100547.41;;;7.16;26.42
54122;BME280;40029;58.708;50.190;2023-03-20T08:03:28;100505.38;;;6.93;26.44
54122;BME280;40029;58.708;50.190;2023-03-20T08:05:59;100510.31;;;7.13;26.11
54122;BME280;40029;58.708;50.190;2023-03-20T08:08:31;100519.97;;;7.01;26.38
54122;BME280;40029;58.708;50.190;2023-03-20T08:11:02;100537.84;;;7.21;26.29
54122;BME280;40029;58.708;50.190;2023-03-20T08:13:33;100481.94;;;7.00;25.89
54122;BME280;40029;58.708;50.190;2023-03-20T08:16:04;100505.94;;;7.16;26.10
54122;BME280;40029;58.708;50.190;2023-03-20T08:18:35;100521.38;;;7.27;26.62
54122;BME280;40029;58.708;50.190;2023-03-20T08:21:07;100463.81;;;7.00;26.30
54122;BME280;40029;58.708;50.190;2023-03-20T08:23:38;100519.56;;;7.35;25.94
54122;BME280;40029;58.708;50.190;2023-03-20T08:26:10;100501.50;;;7.26;25.92
54122;BME280;40029;58.708;50.190;2023-03-20T08:28:41;100506.84;;;7.15;25.70
54122;BME280;40029;58.708;50.190;2023-03-20T08:31:12;100474.34;;;6.87;25.66
54122;BME280;40029;58.708;50.190;2023-03-20T08:33:44;100491.34;;;7.09;25.73
54122;BME280;40029;58.708;50.190;2023-03-20T08:36:16;100449.44;;;6.76;25.52
54122;BME280;40029;58.708;50.190;2023-03-20T08:38:50;100501.88;;;6.95;25.88
54122;BME280;40029;58.708;50.190;2023-03-20T08:41:21;100456.53;;;6.58;25.52
54122;BME280;40029;58.708;50.190;2023-03-20T08:43:52;100488.91;;;6.98;25.46
54122;BME280;40029;58.708;50.190;2023-03-20T08:46:23;100480.25;;;6.99;25.72
54122;BME280;40029;58.708;50.190;2023-03-20T08:48:55;100438.16;;;6.79;25.51
54122;BME280;40029;58.708;50.190;2023-03-20T08:51:28;100492.91;;;7.24;25.22
54122;BME280;40029;58.708;50.190;2023-03-20T08:53:59;100485.72;;;7.43;25.48
54122;BME280;40029;58.708;50.190;2023-03-20T08:56:30;100427.19;;;7.28;26.06
54122;BME280;40029;58.708;50.190;2023-03-20T08:59:02;100430.38;;;7.45;25.41
54122;BME280;40029;58.708;50.190;2023-03-20T09:01:33;100418.28;;;7.46;25.85
54122;BME280;40029;58.708;50.190;2023-03-20T09:04:06;100475.88;;;7.69;24.86
54122;BME280;40029;58.708;50.190;2023-03-20T09:06:37;100479.34;;;7.67;25.04
54122;BME280;40029;58.708;50.190;2023-03-20T09:09:08;100469.47;;;7.32;24.78
54122;BME280;40029;58.708;50.190;2023-03-20T09:11:40;100434.22;;;7.20;25.11
54122;BME280;40029;58.708;50.190;2023-03-20T09:14:11;100459.47;;;7.03;25.30
54122;BME280;40029;58.708;50.190;2023-03-20T09:16:42;100458.47;;;7.14;25.04
54122;BME280;40029;58.708;50.190;2023-03-20T09:19:13;100439.19;;;7.35;25.81
54122;BME280;40029;58.708;50.190;2023-03-20T09:21:45;100457.09;;;7.52;25.74
54122;BME280;40029;58.708;50.190;2023-03-20T09:24:16;100460.47;;;7.57;25.32
54122;BME280;40029;58.708;50.190;2023-03-20T09:26:49;100465.59;;;7.62;25.06
54122;BME280;40029;58.708;50.190;2023-03-20T09:29:20;100456.94;;;7.63;24.79
54122;BME280;40029;58.708;50.190;2023-03-20T09:31:52;100406.34;;;7.36;24.20
54122;BME280;40029;58.708;50.190;2023-03-20T09:34:24;100457.56;;;7.79;24.32
54122;BME280;40029;58.708;50.190;2023-03-20T09:36:55;100414.94;;;7.38;24.17
54122;BME280;40029;58.708;50.190;2023-03-20T09:39:26;100419.88;;;7.56;24.09
54122;BME280;40029;58.708;50.190;2023-03-20T09:42:05;100452.38;;;7.79;23.90
54122;BME280;40029;58.708;50.190;2023-03-20T09:45:03;100393.78;;;7.64;23.36
54122;BME280;40029;58.708;50.190;2023-03-20T09:47:50;100399.88;;;7.63;23.57
54122;BME280;40029;58.708;50.190;2023-03-20T09:50:30;100444.47;;;7.86;23.33
54122;BME280;40029;58.708;50.190;2023-03-20T09:53:41;100447.72;;;7.97;23.64
54122;BME280;40029;58.708;50.190;2023-03-20T09:56:20;100418.81;;;7.68;23.49
54122;BME280;40029;58.708;50.190;2023-03-20T09:58:55;100446.50;;;7.66;23.86
54122;BME280;40029;58.708;50.190;2023-03-20T10:01:42;100383.00;;;7.34;23.98
54122;BME280;40029;58.708;50.190;2023-03-20T10:04:15;100436.22;;;7.60;24.16
54122;BME280;40029;58.708;50.190;2023-03-20T10:06:46;100394.38;;;7.25;23.98
54122;BME280;40029;58.708;50.190;2023-03-20T10:09:23;100426.91;;;7.46;23.95
54122;BME280;40029;58.708;50.190;2023-03-20T10:23:34;100414.78;;;8.52;22.19
54122;BME280;40029;58.708;50.190;2023-03-20T10:25:45;100315.38;;;7.99;22.67
54122;BME280;40029;58.708;50.190;2023-03-20T10:42:29;100393.38;;;8.83;21.43
54122;BME280;40029;58.708;50.190;2023-03-20T10:45:28;100396.16;;;9.15;21.14
54122;BME280;40029;58.708;50.190;2023-03-20T10:48:06;100381.19;;;9.25;21.81
54122;BME280;40029;58.708;50.190;2023-03-20T10:50:44;100390.47;;;9.37;21.47
54122;BME280;40029;58.708;50.190;2023-03-20T10:54:06;100395.66;;;9.72;20.62
54122;BME280;40029;58.708;50.190;2023-03-20T10:56:19;100373.50;;;9.92;19.92
54122;BME280;40029;58.708;50.190;2023-03-20T10:59:43;100380.34;;;10.30;19.77
54122;BME280;40029;58.708;50.190;2023-03-20T11:01:47;100380.88;;;10.43;19.62
54122;BME280;40029;58.708;50.190;2023-03-20T11:04:19;100331.28;;;10.13;19.96
54122;BME280;40029;58.708;50.190;2023-03-20T11:07:02;100380.84;;;10.10;19.71
54122;BME280;40029;58.708;50.190;2023-03-20T11:09:37;100333.53;;;9.94;20.33
54122;BME280;40029;58.708;50.190;2023-03-20T11:12:16;100356.66;;;10.05;20.16
54122;BME280;40029;58.708;50.190;2023-03-20T11:14:50;100342.19;;;9.95;20.60
54122;BME280;40029;58.708;50.190;2023-03-20T11:17:30;100301.13;;;9.73;21.25
54122;BME280;40029;58.708;50.190;2023-03-20T11:20:04;100331.66;;;9.99;21.18
54122;BME280;40029;58.708;50.190;2023-03-20T11:22:36;100330.69;;;10.04;21.22
54122;BME280;40029;58.708;50.190;2023-03-20T11:26:06;100274.03;;;9.81;21.19
54122;BME280;40029;58.708;50.190;2023-03-20T11:31:33;100330.41;;;9.82;21.54
54122;BME280;40029;58.708;50.190;2023-03-20T11:36:57;100316.50;;;9.83;22.16
54122;BME280;40029;58.708;50.190;2023-03-20T11:39:29;100276.66;;;9.46;22.57
54122;BME280;40029;58.708;50.190;2023-03-20T11:42:18;100323.88;;;9.65;22.87
54122;BME280;40029;58.708;50.190;2023-03-20T11:44:59;100287.69;;;9.22;23.58
54122;BME280;40029;58.708;50.190;2023-03-20T11:47:33;100273.16;;;9.13;23.91
54122;BME280;40029;58.708;50.190;2023-03-20T11:50:12;100293.16;;;9.10;24.25
54122;BME280;40029;58.708;50.190;2023-03-20T11:52:55;100281.25;;;8.99;24.48
54122;BME280;40029;58.708;50.190;2023-03-20T11:55:31;100288.38;;;8.91;24.81
54122;BME280;40029;58.708;50.190;2023-03-20T11:58:04;100305.59;;;8.95;25.74
54122;BME280;40029;58.708;50.190;2023-03-20T12:00:39;100261.84;;;8.77;25.80
54122;BME280;40029;58.708;50.190;2023-03-20T12:06:19;100203.81;;;8.78;25.29
54122;BME280;40029;58.708;50.190;2023-03-20T12:09:04;100237.44;;;9.20;25.11
54122;BME280;40029;58.708;50.190;2023-03-20T12:11:46;100273.78;;;9.57;25.37
54122;BME280;40029;58.708;50.190;2023-03-20T12:14:50;100273.63;;;9.63;25.75
54122;BME280;40029;58.708;50.190;2023-03-20T12:20:13;100221.00;;;9.19;25.79
54122;BME280;40029;58.708;50.190;2023-03-20T12:25:44;100267.56;;;9.63;25.94
54122;BME280;40029;58.708;50.190;2023-03-20T12:31:55;100269.13;;;10.01;26.07
54122;BME280;40029;58.708;50.190;2023-03-20T12:36:48;100208.63;;;9.62;26.24
54122;BME280;40029;58.708;50.190;2023-03-20T12:39:21;100252.91;;;9.60;26.24
54122;BME280;40029;58.708;50.190;2023-03-20T12:42:20;100254.00;;;9.51;26.11
54122;BME280;40029;58.708;50.190;2023-03-20T12:50:40;100246.63;;;9.35;26.98
54122;BME280;40029;58.708;50.190;2023-03-20T13:01:47;100239.91;;;9.26;27.90
54122;BME280;40029;58.708;50.190;2023-03-20T13:08:14;100224.25;;;8.92;27.83
54122;BME280;40029;58.708;50.190;2023-03-20T13:12:57;100212.16;;;8.91;28.73
54122;BME280;40029;58.708;50.190;2023-03-20T13:21:30;100211.09;;;8.99;28.98
54122;BME280;40029;58.708;50.190;2023-03-20T13:27:02;100136.00;;;8.53;29.59
54122;BME280;40029;58.708;50.190;2023-03-20T13:33:05;100199.84;;;8.63;30.20
54122;BME280;40029;58.708;50.190;2023-03-20T13:38:37;100172.47;;;8.48;30.77
54122;BME280;40029;58.708;50.190;2023-03-20T13:41:11;100175.84;;;8.52;30.71
54122;BME280;40029;58.708;50.190;2023-03-20T13:43:49;100174.34;;;8.42;30.83
54122;BME280;40029;58.708;50.190;2023-03-20T13:46:28;100114.81;;;7.94;31.41
54122;BME280;40029;58.708;50.190;2023-03-20T13:49:09;100113.50;;;7.74;31.18
54122;BME280;40029;58.708;50.190;2023-03-20T13:55:05;100154.16;;;7.74;32.63
54122;BME280;40029;58.708;50.190;2023-03-20T14:00:48;100132.19;;;7.48;33.14
54122;BME280;40029;58.708;50.190;2023-03-20T14:03:43;100109.94;;;7.37;33.99
54122;BME280;40029;58.708;50.190;2023-03-20T14:06:24;100168.88;;;7.73;33.31
54122;BME280;40029;58.708;50.190;2023-03-20T14:09:27;100139.44;;;7.74;34.17
54122;BME280;40029;58.708;50.190;2023-03-20T14:12:04;100110.41;;;7.56;33.40
54122;BME280;40029;58.708;50.190;2023-03-20T14:14:48;100148.88;;;7.77;33.60
54122;BME280;40029;58.708;50.190;2023-03-20T14:17:25;100161.19;;;7.67;33.22
54122;BME280;40029;58.708;50.190;2023-03-20T14:20:10;100146.91;;;7.46;34.57
54122;BME280;40029;58.708;50.190;2023-03-20T14:22:43;100112.09;;;7.13;34.20
54122;BME280;40029;58.708;50.190;2023-03-20T14:25:19;100139.84;;;7.10;34.35
54122;BME280;40029;58.708;50.190;2023-03-20T14:30:47;100155.66;;;6.93;35.30
54122;BME280;40029;58.708;50.190;2023-03-20T14:36:17;100163.25;;;7.04;36.45
54122;BME280;40029;58.708;50.190;2023-03-20T14:39:14;100146.34;;;6.81;36.26
54122;BME280;40029;58.708;50.190;2023-03-20T14:50:19;100157.94;;;6.57;37.60
54122;BME280;40029;58.708;50.190;2023-03-20T14:53:07;100088.91;;;6.02;38.26
54122;BME280;40029;58.708;50.190;2023-03-20T15:01:22;100115.75;;;5.95;38.48
54122;BME280;40029;58.708;50.190;2023-03-20T15:04:01;100154.25;;;6.16;38.48
54122;BME280;40029;58.708;50.190;2023-03-20T15:06:46;100143.34;;;5.91;39.76
54122;BME280;40029;58.708;50.190;2023-03-20T15:09:20;100150.44;;;5.75;40.08
54122;BME280;40029;58.708;50.190;2023-03-20T15:11:53;100155.38;;;5.97;40.04
54122;BME280;40029;58.708;50.190;2023-03-20T15:14:38;100088.69;;;5.53;40.42
54122;BME280;40029;58.708;50.190;2023-03-20T15:17:22;100097.22;;;5.58;40.14
54122;BME280;40029;58.708;50.190;2023-03-20T15:23:06;100160.72;;;5.80;41.59
54122;BME280;40029;58.708;50.190;2023-03-20T15:25:40;100148.84;;;5.64;40.85
54122;BME280;40029;58.708;50.190;2023-03-20T15:28:16;100149.63;;;5.70;41.48
54122;BME280;40029;58.708;50.190;2023-03-20T15:30:50;100160.81;;;5.72;41.10
54122;BME280;40029;58.708;50.190;2023-03-20T15:33:34;100160.78;;;5.75;41.89
54122;BME280;40029;58.708;50.190;2023-03-20T15:36:17;100114.63;;;5.45;41.88
54122;BME280;40029;58.708;50.190;2023-03-20T15:38:49;100117.25;;;5.40;41.70
54122;BME280;40029;58.708;50.190;2023-03-20T15:41:30;100098.44;;;5.26;41.84
54122;BME280;40029;58.708;50.190;2023-03-20T15:44:24;100161.78;;;5.62;42.51
54122;BME280;40029;58.708;50.190;2023-03-20T15:47:01;100162.69;;;5.61;41.85
54122;BME280;40029;58.708;50.190;2023-03-20T15:49:33;100127.50;;;5.48;41.61
54122;BME280;40029;58.708;50.190;2023-03-20T15:52:10;100055.66;;;5.04;41.95
54122;BME280;40029;58.708;50.190;2023-03-20T15:54:43;100137.03;;;5.43;42.01
54122;BME280;40029;58.708;50.190;2023-03-20T15:57:23;100123.25;;;5.42;42.27
54122;BME280;40029;58.708;50.190;2023-03-20T15:59:56;100091.72;;;5.14;42.19
54122;BME280;40029;58.708;50.190;2023-03-20T16:02:28;100154.19;;;5.47;42.65
54122;BME280;40029;58.708;50.190;2023-03-20T16:05:00;100147.41;;;5.38;42.97
54122;BME280;40029;58.708;50.190;2023-03-20T16:07:31;100147.41;;;5.38;43.40
54122;BME280;40029;58.708;50.190;2023-03-20T16:10:18;100110.69;;;5.10;44.12
54122;BME280;40029;58.708;50.190;2023-03-20T16:12:51;100162.88;;;5.44;43.20
54122;BME280;40029;58.708;50.190;2023-03-20T16:15:27;100144.81;;;5.41;43.32
54122;BME280;40029;58.708;50.190;2023-03-20T16:18:02;100115.88;;;5.07;43.61